createdAt,value
2023-12-09T00:01:48.839Z,100972.78
2023-12-09T00:04:53.027Z,100969.03
2023-12-09T00:08:04.251Z,100974.09
2023-12-09T00:11:10.287Z,100973.47
2023-12-09T00:14:14.854Z,100976.53
2023-12-09T00:17:18.998Z,100979.28
2023-12-09T00:20:27.234Z,100972.13
2023-12-09T00:23:32.035Z,100970.16
2023-12-09T00:26:39.374Z,100975.72
2023-12-09T00:29:44.969Z,100978.31
2023-12-09T00:32:48.564Z,100974.09
2023-12-09T00:35:52.242Z,100981.75
2023-12-09T00:38:59.195Z,100973.59
2023-12-09T00:42:06.295Z,100974.75
2023-12-09T00:45:10.334Z,100977.66
2023-12-09T00:48:14.300Z,100971.47
2023-12-09T00:51:17.961Z,100979.28
2023-12-09T00:54:25.081Z,100979.28
2023-12-09T00:57:30.880Z,100980.09
2023-12-09T01:00:40.067Z,100981.91
2023-12-09T01:03:43.554Z,100983.19
2023-12-09T01:06:47.312Z,100989.56
2023-12-09T01:09:53.564Z,100985.00
2023-12-09T01:12:56.770Z,100973.78
2023-12-09T01:16:00.664Z,100983.53
2023-12-09T01:19:04.228Z,100978.78
2023-12-09T01:22:40.143Z,100980.56
2023-12-09T01:25:45.646Z,100973.44
2023-12-09T01:28:49.952Z,100972.13
2023-12-09T01:32:14.501Z,100971.63
2023-12-09T01:35:20.177Z,100974.59
2023-12-09T01:38:47.299Z,100965.31
2023-12-09T01:42:14.825Z,100965.31
2023-12-09T01:45:24.550Z,100962.69
2023-12-09T01:48:31.131Z,100963.81
2023-12-09T01:51:37.117Z,100965.81
2023-12-09T01:54:40.636Z,100964.69
2023-12-09T01:58:11.725Z,100961.75
2023-12-09T02:01:15.439Z,100966.28
2023-12-09T02:04:46.493Z,100965.34
2023-12-09T02:07:49.949Z,100973.66
2023-12-09T02:11:18.891Z,100976.88
2023-12-09T02:14:54.499Z,100971.88
2023-12-09T02:18:02.850Z,100967.62
2023-12-09T02:21:08.109Z,100971.88
2023-12-09T02:24:14.126Z,100967.28
2023-12-09T02:27:55.449Z,100969.25
2023-12-09T02:31:27.797Z,100969.25
2023-12-09T02:34:32.760Z,100974.47
2023-12-09T02:37:39.249Z,100962.44
2023-12-09T02:40:45.866Z,100966.66
2023-12-09T02:43:51.110Z,100960.78
2023-12-09T02:46:57.891Z,100968.25
2023-12-09T02:50:01.413Z,100961.75
2023-12-09T02:53:06.775Z,100965.66
2023-12-09T02:56:12.916Z,100969.25
2023-12-09T02:59:16.189Z,100966.31
2023-12-09T03:02:20.007Z,100969.37
2023-12-09T03:05:24.092Z,100966.31
2023-12-09T03:08:31.315Z,100972.50
2023-12-09T03:11:34.691Z,100973.31
2023-12-09T03:14:42.076Z,100971.53
2023-12-09T03:17:46.432Z,100975.09
2023-12-09T03:20:53.449Z,100973.31
2023-12-09T03:24:16.026Z,100979.47
2023-12-09T03:27:22.808Z,100984.22
2023-12-09T03:30:26.756Z,100985.19
2023-12-09T03:33:33.329Z,100984.38
2023-12-09T03:36:36.373Z,100981.63
2023-12-09T03:39:40.333Z,100981.94
2023-12-09T03:42:45.155Z,100990.56
2023-12-09T03:45:48.897Z,100985.34
2023-12-09T03:48:53.009Z,100984.69
2023-12-09T03:51:59.888Z,100993.31
2023-12-09T03:55:05.480Z,101000.00
2023-12-09T03:58:18.901Z,101001.28
2023-12-09T04:01:26.305Z,100998.06
2023-12-09T04:04:31.835Z,100995.75
2023-12-09T04:07:37.916Z,100996.91
2023-12-09T04:10:45.982Z,100996.41
2023-12-09T04:13:50.555Z,100999.06
2023-12-09T04:16:56.117Z,101002.44
2023-12-09T04:20:01.838Z,100995.78
2023-12-09T04:23:08.940Z,100988.44
2023-12-09T04:26:14.266Z,100988.78
2023-12-09T04:29:21.418Z,100989.97
2023-12-09T04:32:25.005Z,100989.97
2023-12-09T04:35:28.811Z,100990.91
2023-12-09T04:38:34.060Z,100999.69
2023-12-09T04:41:40.984Z,100997.91
2023-12-09T04:44:47.078Z,100993.34
2023-12-09T04:47:52.592Z,100998.50
2023-12-09T04:52:00.308Z,101001.62
2023-12-09T04:55:06.590Z,100995.78
2023-12-09T04:58:33.587Z,101006.37
2023-12-09T05:01:38.215Z,100995.94
2023-12-09T05:05:01.012Z,100995.94
2023-12-09T05:08:05.615Z,101008.00
2023-12-09T05:11:11.559Z,101000.34
2023-12-09T05:14:16.060Z,101009.13
2023-12-09T05:17:19.448Z,101002.97
2023-12-09T05:20:45.863Z,101007.84
2023-12-09T05:23:49.178Z,101010.44
2023-12-09T05:26:53.321Z,101004.06
2023-12-09T05:30:02.207Z,101001.47
2023-12-09T05:33:07.872Z,101009.47
2023-12-09T05:36:39.630Z,101018.09
2023-12-09T05:39:44.203Z,101019.38
2023-12-09T05:42:51.281Z,101020.00
2023-12-09T05:46:00.700Z,101025.56
2023-12-09T05:50:30.653Z,101030.28
2023-12-09T05:53:35.106Z,101025.91
2023-12-09T05:57:00.079Z,101030.28
2023-12-09T06:00:06.645Z,101015.47
2023-12-09T06:03:10.318Z,101012.19
2023-12-09T06:06:16.532Z,101015.81
2023-12-09T06:09:24.399Z,101019.22
2023-12-09T06:12:29.259Z,101021.97
2023-12-09T06:15:33.935Z,101011.88
2023-12-09T06:18:37.428Z,101018.06
2023-12-09T06:21:44.000Z,101019.38
2023-12-09T06:24:54.568Z,101016.44
2023-12-09T06:28:20.137Z,101019.69
2023-12-09T06:31:43.295Z,101018.06
2023-12-09T06:34:47.409Z,101018.06
2023-12-09T06:37:50.854Z,101018.41
2023-12-09T06:41:05.130Z,101013.00
2023-12-09T06:44:08.466Z,101022.44
2023-12-09T06:47:34.624Z,101020.16
2023-12-09T06:51:09.773Z,101019.34
2023-12-09T06:54:15.166Z,101025.84
2023-12-09T06:57:19.087Z,101026.97
2023-12-09T07:00:23.231Z,101020.59
2023-12-09T07:03:49.932Z,101023.56
2023-12-09T07:07:18.364Z,101030.37
2023-12-09T07:10:27.300Z,101032.47
2023-12-09T07:13:34.998Z,101032.16
2023-12-09T07:16:39.503Z,101039.63
2023-12-09T07:19:45.868Z,101039.91
2023-12-09T07:23:08.968Z,101040.91
2023-12-09T07:26:13.634Z,101046.47
2023-12-09T07:29:20.038Z,101040.09
2023-12-09T07:32:52.224Z,101047.81
2023-12-09T07:40:14.229Z,101039.12
2023-12-09T07:43:18.382Z,101046.94
2023-12-09T07:46:22.859Z,101038.41
2023-12-09T07:49:26.371Z,101045.72
2023-12-09T07:52:30.712Z,101047.03
2023-12-09T07:55:41.720Z,101039.69
2023-12-09T07:58:47.281Z,101042.41
2023-12-09T08:01:53.686Z,101040.00
2023-12-09T08:04:57.021Z,101037.81
2023-12-09T08:08:01.123Z,101035.50
2023-12-09T08:11:10.261Z,101038.31
2023-12-09T08:14:16.447Z,101037.50
2023-12-09T08:17:40.567Z,101042.28
2023-12-09T08:20:51.930Z,101041.56
2023-12-09T08:23:57.307Z,101034.00
2023-12-09T08:27:00.568Z,101037.94
2023-12-09T08:30:07.658Z,101043.31
2023-12-09T08:33:21.028Z,101036.59
2023-12-09T08:36:25.258Z,101032.31
2023-12-09T08:39:28.149Z,101026.72
2023-12-09T08:42:31.875Z,101035.94
2023-12-09T08:45:35.624Z,101041.00
2023-12-09T08:48:39.671Z,101039.84
2023-12-09T08:51:47.539Z,101041.38
2023-12-09T08:54:53.848Z,101022.19
2023-12-09T08:57:59.856Z,101035.84
2023-12-09T09:01:29.860Z,101030.66
2023-12-09T09:04:58.314Z,101029.16
2023-12-09T09:08:22.312Z,101034.53
2023-12-09T09:11:28.942Z,101037.81
2023-12-09T09:14:35.128Z,101039.44
2023-12-09T09:17:41.423Z,101034.69
2023-12-09T09:20:47.192Z,101027.66
2023-12-09T09:23:50.286Z,101028.28
2023-12-09T09:27:00.095Z,101038.84
2023-12-09T09:30:05.288Z,101029.47
2023-12-09T09:33:16.008Z,101025.16
2023-12-09T09:36:20.517Z,101026.50
2023-12-09T09:39:44.504Z,101015.84
2023-12-09T09:43:24.963Z,101009.25
2023-12-09T09:46:50.350Z,101013.37
2023-12-09T09:50:00.532Z,101015.00
2023-12-09T09:53:13.543Z,101011.25
2023-12-09T09:56:36.533Z,101011.84
2023-12-09T09:59:44.840Z,100996.47
2023-12-09T10:02:50.983Z,101004.06
2023-12-09T10:09:50.863Z,100988.31
2023-12-09T10:13:17.151Z,100984.62
2023-12-09T10:16:40.264Z,100985.63
2023-12-09T10:19:56.184Z,100977.81
2023-12-09T10:23:01.594Z,100978.34
2023-12-09T10:26:09.252Z,100971.69
2023-12-09T10:29:18.015Z,100967.91
2023-12-09T10:32:54.110Z,100966.59
2023-12-09T10:35:58.377Z,100966.22
2023-12-09T10:39:01.602Z,100961.22
2023-12-09T10:42:05.845Z,100956.84
2023-12-09T10:45:09.498Z,100951.59
2023-12-09T10:48:16.525Z,100947.81
2023-12-09T10:51:42.192Z,100949.59
2023-12-09T10:54:47.373Z,100938.66
2023-12-09T10:57:51.927Z,100935.53
2023-12-09T11:00:59.256Z,100934.44
2023-12-09T11:04:10.439Z,100930.06
2023-12-09T11:07:16.165Z,100932.06
2023-12-09T11:10:20.290Z,100924.81
2023-12-09T11:13:30.894Z,100923.84
2023-12-09T11:16:34.765Z,100915.53
2023-12-09T11:20:11.875Z,100908.75
2023-12-09T11:23:18.238Z,100912.47
2023-12-09T11:26:31.622Z,100911.28
2023-12-09T11:29:37.464Z,100920.84
2023-12-09T11:33:00.829Z,100916.94
2023-12-09T11:36:08.910Z,100919.69
2023-12-09T11:39:22.299Z,100924.63
2023-12-09T11:42:26.666Z,100913.03
2023-12-09T11:45:32.970Z,100920.41
2023-12-09T11:48:37.795Z,100926.72
2023-12-09T11:51:40.849Z,100918.28
2023-12-09T11:54:46.793Z,100914.22
2023-12-09T11:57:51.836Z,100917.97
2023-12-09T12:01:15.041Z,100906.88
2023-12-09T12:04:18.383Z,100908.25
2023-12-09T12:07:21.027Z,100907.97
2023-12-09T12:10:27.507Z,100904.28
2023-12-09T12:13:33.774Z,100895.03
2023-12-09T12:16:43.649Z,100899.84
2023-12-09T12:20:11.441Z,100902.03
2023-12-09T12:23:26.446Z,100901.75
2023-12-09T12:26:40.417Z,100909.41
2023-12-09T12:30:05.403Z,100905.78
2023-12-09T12:33:09.940Z,100899.53
2023-12-09T12:36:15.068Z,100907.09
2023-12-09T12:39:18.402Z,100897.91
2023-12-09T12:42:21.710Z,100895.28
2023-12-09T12:45:28.698Z,100897.44
2023-12-09T12:48:36.922Z,100900.66
2023-12-09T12:52:12.222Z,100892.31
2023-12-09T12:55:17.692Z,100888.81
2023-12-09T12:58:21.479Z,100886.75
2023-12-09T13:01:44.269Z,100883.09
2023-12-09T13:05:08.120Z,100878.16
2023-12-09T13:08:11.495Z,100864.94
2023-12-09T13:11:17.660Z,100868.75
2023-12-09T13:14:43.701Z,100872.34
2023-12-09T13:17:46.548Z,100870.44
2023-12-09T13:20:51.669Z,100884.97
2023-12-09T13:23:54.349Z,100874.78
2023-12-09T13:26:58.642Z,100872.22
2023-12-09T13:30:07.785Z,100874.66
2023-12-09T13:33:11.052Z,100877.31
2023-12-09T13:36:14.181Z,100877.22
2023-12-09T13:39:17.619Z,100877.37
2023-12-09T13:42:23.253Z,100880.38
2023-12-09T13:45:27.895Z,100886.16
2023-12-09T13:48:32.188Z,100878.34
2023-12-09T13:51:59.726Z,100875.00
2023-12-09T13:55:06.210Z,100873.72
2023-12-09T13:58:09.722Z,100874.00
2023-12-09T14:01:32.696Z,100876.78
2023-12-09T14:04:36.483Z,100875.06
2023-12-09T14:07:40.777Z,100874.84
2023-12-09T14:11:05.123Z,100874.13
2023-12-09T14:14:10.578Z,100865.25
2023-12-09T14:17:16.416Z,100875.13
2023-12-09T14:20:21.067Z,100865.91
2023-12-09T14:23:27.446Z,100856.41
2023-12-09T14:26:35.416Z,100855.13
2023-12-09T14:29:38.757Z,100859.38
2023-12-09T14:32:46.167Z,100858.59
2023-12-09T14:35:49.848Z,100854.53
2023-12-09T14:38:53.261Z,100849.78
2023-12-09T14:41:58.904Z,100855.13
2023-12-09T14:45:21.815Z,100855.75
2023-12-09T14:48:31.110Z,100848.97
2023-12-09T14:51:44.159Z,100830.41
2023-12-09T14:55:09.005Z,100844.47
2023-12-09T14:58:32.473Z,100837.03
2023-12-09T15:01:35.909Z,100837.06
2023-12-09T15:04:42.721Z,100826.84
2023-12-09T15:07:48.683Z,100810.06
2023-12-09T15:10:54.675Z,100818.28
2023-12-09T15:14:00.138Z,100821.56
2023-12-09T15:17:03.032Z,100820.44
2023-12-09T15:20:10.638Z,100821.19
2023-12-09T15:23:37.498Z,100827.72
2023-12-09T15:27:01.929Z,100827.09
2023-12-09T15:30:08.246Z,100821.59
2023-12-09T15:33:11.362Z,100819.00
2023-12-09T15:36:17.173Z,100801.56
2023-12-09T15:39:40.774Z,100795.28
2023-12-09T15:42:45.818Z,100794.28
2023-12-09T15:45:49.124Z,100800.63
2023-12-09T15:48:55.370Z,100795.53
2023-12-09T15:52:21.280Z,100791.28
2023-12-09T15:55:24.985Z,100799.16
2023-12-09T15:58:32.862Z,100798.19
2023-12-09T16:01:36.892Z,100784.66
2023-12-09T16:04:42.601Z,100782.59
2023-12-09T16:07:45.780Z,100780.28
2023-12-09T16:10:50.609Z,100788.31
2023-12-09T16:13:54.165Z,100792.03
2023-12-09T16:16:57.392Z,100796.66
2023-12-09T16:20:03.916Z,100796.72
2023-12-09T16:23:09.247Z,100803.09
2023-12-09T16:26:15.024Z,100781.03
2023-12-09T16:29:21.128Z,100770.31
2023-12-09T16:32:24.134Z,100765.41
2023-12-09T16:35:36.474Z,100766.50
2023-12-09T16:38:41.668Z,100762.37
2023-12-09T16:41:49.597Z,100767.62
2023-12-09T16:44:52.271Z,100769.63
2023-12-09T16:47:57.839Z,100778.97
2023-12-09T16:51:03.940Z,100766.66
2023-12-09T16:55:04.631Z,100752.19
2023-12-09T16:58:11.349Z,100751.38
2023-12-09T17:01:16.676Z,100755.81
2023-12-09T17:04:20.197Z,100747.25
2023-12-09T17:07:26.287Z,100746.44
2023-12-09T17:10:34.025Z,100739.88
2023-12-09T17:13:39.256Z,100757.72
2023-12-09T17:16:46.637Z,100750.81
2023-12-09T17:20:10.565Z,100744.06
2023-12-09T17:23:17.325Z,100739.09
2023-12-09T17:26:20.305Z,100735.34
2023-12-09T17:29:28.178Z,100740.28
2023-12-09T17:32:31.330Z,100731.44
2023-12-09T17:35:37.369Z,100738.44
2023-12-09T17:38:42.745Z,100744.06
2023-12-09T17:41:48.063Z,100736.09
2023-12-09T17:44:52.868Z,100725.03
2023-12-09T17:48:17.274Z,100720.28
2023-12-09T17:51:22.382Z,100726.97
2023-12-09T17:54:28.404Z,100736.62
2023-12-09T17:57:34.323Z,100721.84
2023-12-09T18:00:39.698Z,100716.69
2023-12-09T18:03:43.556Z,100708.75
2023-12-09T18:06:46.771Z,100717.53
2023-12-09T18:09:50.786Z,100714.03
2023-12-09T18:12:53.811Z,100708.69
2023-12-09T18:15:59.037Z,100697.53
2023-12-09T18:19:03.014Z,100700.84
2023-12-09T18:22:10.109Z,100702.56
2023-12-09T18:25:15.281Z,100691.22
2023-12-09T18:28:19.566Z,100689.50
2023-12-09T18:31:25.135Z,100701.97
2023-12-09T18:34:28.834Z,100698.72
2023-12-09T18:37:36.574Z,100707.81
2023-12-09T18:40:39.838Z,100695.44
2023-12-09T18:43:45.571Z,100688.66
2023-12-09T18:46:49.921Z,100673.81
2023-12-09T18:49:56.070Z,100694.97
2023-12-09T18:52:59.723Z,100688.22
2023-12-09T18:56:05.499Z,100686.59
2023-12-09T18:59:08.826Z,100689.94
2023-12-09T19:02:15.896Z,100692.53
2023-12-09T19:05:51.777Z,100677.59
2023-12-09T19:08:55.521Z,100659.88
2023-12-09T19:12:01.195Z,100648.38
2023-12-09T19:15:33.949Z,100636.41
2023-12-09T19:18:43.711Z,100617.06
2023-12-09T19:25:49.540Z,100619.22
2023-12-09T19:28:53.577Z,100619.75
2023-12-09T19:36:25.982Z,100612.72
2023-12-09T19:39:33.824Z,100601.78
2023-12-09T19:42:39.142Z,100593.97
2023-12-09T19:45:44.870Z,100590.97
2023-12-09T19:48:48.140Z,100588.12
2023-12-09T19:51:53.926Z,100606.56
2023-12-09T19:54:57.454Z,100591.84
2023-12-09T19:58:06.777Z,100574.59
2023-12-09T20:01:13.244Z,100569.37
2023-12-09T20:04:28.955Z,100573.63
2023-12-09T20:07:32.408Z,100568.31
2023-12-09T20:10:54.000Z,100562.91
2023-12-09T20:13:58.539Z,100550.25
2023-12-09T20:17:01.858Z,100555.09
2023-12-09T20:20:09.854Z,100542.59
2023-12-09T20:23:19.512Z,100543.59
2023-12-09T20:26:43.235Z,100540.19
2023-12-09T20:29:46.680Z,100541.44
2023-12-09T20:32:50.368Z,100535.06
2023-12-09T20:40:37.412Z,100529.13
2023-12-09T20:48:31.771Z,100521.97
2023-12-09T20:55:29.532Z,100517.59
2023-12-09T20:58:36.494Z,100514.91
2023-12-09T21:06:16.092Z,100512.03
2023-12-09T21:09:28.760Z,100501.78
2023-12-09T21:12:31.690Z,100488.03
2023-12-09T21:15:39.241Z,100480.13
2023-12-09T21:18:45.574Z,100472.47
2023-12-09T21:21:48.769Z,100466.63
2023-12-09T21:25:02.862Z,100466.72
2023-12-09T21:28:16.998Z,100454.78
2023-12-09T21:31:19.996Z,100454.47
2023-12-09T21:34:31.646Z,100453.78
2023-12-09T21:37:40.425Z,100441.31
2023-12-09T21:41:24.317Z,100443.22
2023-12-09T21:44:49.077Z,100438.75
2023-12-09T21:48:17.126Z,100443.69
2023-12-09T21:51:21.803Z,100441.63
2023-12-09T21:54:25.792Z,100437.78
2023-12-09T21:57:30.655Z,100443.16
2023-12-09T22:00:36.927Z,100438.34
2023-12-09T22:03:45.646Z,100438.75
2023-12-09T22:06:48.719Z,100431.62
2023-12-09T22:09:52.699Z,100425.78
2023-12-09T22:13:18.805Z,100413.53
2023-12-09T22:16:23.282Z,100413.25
2023-12-09T22:19:49.029Z,100414.28
2023-12-09T22:22:55.458Z,100410.88
2023-12-09T22:25:59.517Z,100400.59
2023-12-09T22:29:03.731Z,100388.31
2023-12-09T22:32:08.724Z,100388.63
2023-12-09T22:35:12.115Z,100388.12
2023-12-09T22:38:15.587Z,100378.41
2023-12-09T22:41:25.522Z,100387.56
2023-12-09T22:44:48.911Z,100387.22
2023-12-09T22:47:52.872Z,100371.53
2023-12-09T22:50:57.247Z,100382.75
2023-12-09T22:54:00.541Z,100382.47
2023-12-09T22:57:10.334Z,100377.81
2023-12-09T23:00:33.972Z,100384.09
2023-12-09T23:03:39.203Z,100396.34
2023-12-09T23:06:43.611Z,100403.09
2023-12-09T23:09:46.709Z,100399.44
2023-12-09T23:12:51.964Z,100377.38
2023-12-09T23:15:54.702Z,100366.34
2023-12-09T23:19:00.068Z,100368.22
2023-12-09T23:22:03.522Z,100358.09
2023-12-09T23:25:07.600Z,100343.56
2023-12-09T23:28:12.954Z,100329.41
2023-12-09T23:31:22.494Z,100313.44
2023-12-09T23:34:31.603Z,100301.34
2023-12-09T23:37:35.616Z,100281.91
2023-12-09T23:40:42.765Z,100281.63
2023-12-09T23:43:46.223Z,100273.72
2023-12-09T23:46:50.875Z,100278.38
2023-12-09T23:49:55.785Z,100286.19
2023-12-09T23:52:59.245Z,100297.66
2023-12-09T23:56:04.588Z,100298.37
2023-12-09T23:59:07.748Z,100292.47
